sensor_id;sensor_type;location;lat;lon;timestamp;temperature;humidity
13223;DHT22;6676;45.192;5.722;2023-07-29T00:02:31;23.30;99.90
13223;DHT22;6676;45.192;5.722;2023-07-29T00:05:22;23.60;99.90
13223;DHT22;6676;45.192;5.722;2023-07-29T00:08:13;23.40;99.90
13223;DHT22;6676;45.192;5.722;2023-07-29T00:11:05;23.30;99.90
13223;DHT22;6676;45.192;5.722;2023-07-29T00:16:36;23.30;99.90
13223;DHT22;6676;45.192;5.722;2023-07-29T00:22:06;23.30;99.90
13223;DHT22;6676;45.192;5.722;2023-07-29T00:24:58;23.30;99.90
13223;DHT22;6676;45.192;5.722;2023-07-29T00:27:49;23.30;99.90
13223;DHT22;6676;45.192;5.722;2023-07-29T00:30:42;23.30;99.90
13223;DHT22;6676;45.192;5.722;2023-07-29T00:36:13;23.30;99.90
13223;DHT22;6676;45.192;5.722;2023-07-29T00:39:04;23.30;99.90
13223;DHT22;6676;45.192;5.722;2023-07-29T00:41:55;23.30;99.90
13223;DHT22;6676;45.192;5.722;2023-07-29T00:44:46;23.40;99.90
13223;DHT22;6676;45.192;5.722;2023-07-29T00:47:38;23.40;99.90
13223;DHT22;6676;45.192;5.722;2023-07-29T00:50:30;23.30;99.90
13223;DHT22;6676;45.192;5.722;2023-07-29T00:53:22;23.30;99.90
13223;DHT22;6676;45.192;5.722;2023-07-29T00:56:14;23.30;99.90
13223;DHT22;6676;45.192;5.722;2023-07-29T00:59:05;23.30;99.90
13223;DHT22;6676;45.192;5.722;2023-07-29T01:01:56;23.30;99.90
13223;DHT22;6676;45.192;5.722;2023-07-29T01:04:51;23.30;99.90
13223;DHT22;6676;45.192;5.722;2023-07-29T01:07:49;23.20;99.90
13223;DHT22;6676;45.192;5.722;2023-07-29T01:10:43;23.20;99.90
13223;DHT22;6676;45.192;5.722;2023-07-29T01:16:20;23.10;99.90
13223;DHT22;6676;45.192;5.722;2023-07-29T01:21:55;22.90;99.90
13223;DHT22;6676;45.192;5.722;2023-07-29T01:24:47;22.90;99.90
13223;DHT22;6676;45.192;5.722;2023-07-29T01:27:38;22.90;99.90
13223;DHT22;6676;45.192;5.722;2023-07-29T01:33:16;22.70;99.90
13223;DHT22;6676;45.192;5.722;2023-07-29T01:36:11;22.60;99.90
13223;DHT22;6676;45.192;5.722;2023-07-29T01:39:04;22.70;99.90
13223;DHT22;6676;45.192;5.722;2023-07-29T01:41:55;22.60;99.90
13223;DHT22;6676;45.192;5.722;2023-07-29T01:44:48;22.60;99.90
13223;DHT22;6676;45.192;5.722;2023-07-29T01:47:40;22.50;99.90
13223;DHT22;6676;45.192;5.722;2023-07-29T01:53:09;22.60;99.90
13223;DHT22;6676;45.192;5.722;2023-07-29T01:56:00;22.60;99.90
13223;DHT22;6676;45.192;5.722;2023-07-29T01:58:52;22.60;99.90
13223;DHT22;6676;45.192;5.722;2023-07-29T02:01:44;22.70;99.90
13223;DHT22;6676;45.192;5.722;2023-07-29T02:04:36;22.70;99.90
13223;DHT22;6676;45.192;5.722;2023-07-29T02:07:28;22.60;99.90
13223;DHT22;6676;45.192;5.722;2023-07-29T02:10:19;22.60;99.90
13223;DHT22;6676;45.192;5.722;2023-07-29T02:13:11;22.60;99.90
13223;DHT22;6676;45.192;5.722;2023-07-29T02:16:02;22.60;99.90
13223;DHT22;6676;45.192;5.722;2023-07-29T02:18:54;22.60;99.90
13223;DHT22;6676;45.192;5.722;2023-07-29T02:21:45;22.50;99.90
13223;DHT22;6676;45.192;5.722;2023-07-29T02:24:37;22.40;99.90
13223;DHT22;6676;45.192;5.722;2023-07-29T02:27:28;22.40;99.90
13223;DHT22;6676;45.192;5.722;2023-07-29T02:30:21;22.50;99.90
13223;DHT22;6676;45.192;5.722;2023-07-29T02:33:12;22.50;99.90
13223;DHT22;6676;45.192;5.722;2023-07-29T02:36:04;22.50;99.90
13223;DHT22;6676;45.192;5.722;2023-07-29T02:38:56;22.50;99.90
13223;DHT22;6676;45.192;5.722;2023-07-29T02:44:26;22.40;99.90
13223;DHT22;6676;45.192;5.722;2023-07-29T02:47:17;22.30;99.90
13223;DHT22;6676;45.192;5.722;2023-07-29T02:50:09;22.30;99.90
13223;DHT22;6676;45.192;5.722;2023-07-29T02:53:01;22.30;99.90
13223;DHT22;6676;45.192;5.722;2023-07-29T02:58:31;22.30;99.90
13223;DHT22;6676;45.192;5.722;2023-07-29T03:01:25;22.30;99.90
13223;DHT22;6676;45.192;5.722;2023-07-29T03:07:00;22.20;99.90
13223;DHT22;6676;45.192;5.722;2023-07-29T03:09:52;22.10;99.90
13223;DHT22;6676;45.192;5.722;2023-07-29T03:12:43;22.10;99.90
13223;DHT22;6676;45.192;5.722;2023-07-29T03:15:34;22.10;99.90
13223;DHT22;6676;45.192;5.722;2023-07-29T03:18:25;22.10;99.90
13223;DHT22;6676;45.192;5.722;2023-07-29T03:21:17;22.20;99.90
13223;DHT22;6676;45.192;5.722;2023-07-29T03:24:08;22.20;99.90
13223;DHT22;6676;45.192;5.722;2023-07-29T03:27:00;22.30;99.90
13223;DHT22;6676;45.192;5.722;2023-07-29T03:29:51;22.40;99.90
13223;DHT22;6676;45.192;5.722;2023-07-29T03:32:44;22.40;99.90
13223;DHT22;6676;45.192;5.722;2023-07-29T03:35:36;22.30;99.90
13223;DHT22;6676;45.192;5.722;2023-07-29T03:41:08;22.40;99.90
13223;DHT22;6676;45.192;5.722;2023-07-29T03:44:00;22.40;99.90
13223;DHT22;6676;45.192;5.722;2023-07-29T03:46:51;22.50;99.90
13223;DHT22;6676;45.192;5.722;2023-07-29T03:49:43;22.50;99.90
13223;DHT22;6676;45.192;5.722;2023-07-29T03:52:36;22.50;99.90
13223;DHT22;6676;45.192;5.722;2023-07-29T03:55:27;22.40;99.90
13223;DHT22;6676;45.192;5.722;2023-07-29T03:58:20;22.40;99.90
13223;DHT22;6676;45.192;5.722;2023-07-29T04:01:11;22.40;99.90
13223;DHT22;6676;45.192;5.722;2023-07-29T04:06:44;22.40;99.90
13223;DHT22;6676;45.192;5.722;2023-07-29T04:12:14;22.40;99.90
13223;DHT22;6676;45.192;5.722;2023-07-29T04:15:07;22.40;99.90
13223;DHT22;6676;45.192;5.722;2023-07-29T04:17:58;22.50;99.90
13223;DHT22;6676;45.192;5.722;2023-07-29T04:20:51;22.30;99.90
13223;DHT22;6676;45.192;5.722;2023-07-29T04:26:20;22.30;99.90
13223;DHT22;6676;45.192;5.722;2023-07-29T04:29:11;22.20;99.90
13223;DHT22;6676;45.192;5.722;2023-07-29T04:32:03;22.10;99.90
13223;DHT22;6676;45.192;5.722;2023-07-29T04:34:54;22.00;99.90
13223;DHT22;6676;45.192;5.722;2023-07-29T04:37:45;22.00;99.90
13223;DHT22;6676;45.192;5.722;2023-07-29T04:43:17;21.90;99.90
13223;DHT22;6676;45.192;5.722;2023-07-29T04:46:08;21.90;99.90
13223;DHT22;6676;45.192;5.722;2023-07-29T04:51:37;21.90;99.90
13223;DHT22;6676;45.192;5.722;2023-07-29T04:57:10;22.00;99.90
13223;DHT22;6676;45.192;5.722;2023-07-29T05:00:02;22.00;99.90
13223;DHT22;6676;45.192;5.722;2023-07-29T05:02:53;22.00;99.90
13223;DHT22;6676;45.192;5.722;2023-07-29T05:05:44;22.20;99.90
13223;DHT22;6676;45.192;5.722;2023-07-29T05:11:15;22.30;99.90
13223;DHT22;6676;45.192;5.722;2023-07-29T05:16:45;22.40;99.90
13223;DHT22;6676;45.192;5.722;2023-07-29T05:19:37;22.50;99.90
13223;DHT22;6676;45.192;5.722;2023-07-29T05:22:28;22.50;99.90
13223;DHT22;6676;45.192;5.722;2023-07-29T05:25:20;22.40;99.90
13223;DHT22;6676;45.192;5.722;2023-07-29T05:30:51;22.30;99.90
13223;DHT22;6676;45.192;5.722;2023-07-29T05:36:22;22.40;99.90
13223;DHT22;6676;45.192;5.722;2023-07-29T05:42:15;22.40;99.90
13223;DHT22;6676;45.192;5.722;2023-07-29T05:45:09;22.40;99.90
13223;DHT22;6676;45.192;5.722;2023-07-29T05:50:38;22.70;99.90
13223;DHT22;6676;45.192;5.722;2023-07-29T05:53:29;22.70;99.90
13223;DHT22;6676;45.192;5.722;2023-07-29T05:56:20;22.60;99.90
13223;DHT22;6676;45.192;5.722;2023-07-29T05:59:13;22.60;99.90
13223;DHT22;6676;45.192;5.722;2023-07-29T06:02:05;22.60;99.90
13223;DHT22;6676;45.192;5.722;2023-07-29T06:04:57;22.60;99.90
13223;DHT22;6676;45.192;5.722;2023-07-29T06:07:49;22.70;99.90
13223;DHT22;6676;45.192;5.722;2023-07-29T06:10:40;22.80;99.90
13223;DHT22;6676;45.192;5.722;2023-07-29T06:16:10;22.90;99.90
13223;DHT22;6676;45.192;5.722;2023-07-29T06:21:42;22.80;99.90
13223;DHT22;6676;45.192;5.722;2023-07-29T06:24:33;22.80;99.90
13223;DHT22;6676;45.192;5.722;2023-07-29T06:30:07;22.80;99.90
13223;DHT22;6676;45.192;5.722;2023-07-29T06:32:58;22.90;99.90
13223;DHT22;6676;45.192;5.722;2023-07-29T06:35:49;22.90;99.90
13223;DHT22;6676;45.192;5.722;2023-07-29T06:41:20;23.00;99.90
13223;DHT22;6676;45.192;5.722;2023-07-29T06:44:11;23.10;99.90
13223;DHT22;6676;45.192;5.722;2023-07-29T06:47:05;23.20;99.90
13223;DHT22;6676;45.192;5.722;2023-07-29T06:49:56;23.30;99.90
13223;DHT22;6676;45.192;5.722;2023-07-29T06:52:48;23.30;99.90
13223;DHT22;6676;45.192;5.722;2023-07-29T06:55:39;23.30;99.90
13223;DHT22;6676;45.192;5.722;2023-07-29T07:01:10;23.40;99.90
13223;DHT22;6676;45.192;5.722;2023-07-29T07:04:05;23.50;99.90
13223;DHT22;6676;45.192;5.722;2023-07-29T07:06:56;23.50;99.90
13223;DHT22;6676;45.192;5.722;2023-07-29T07:09:49;23.50;99.90
13223;DHT22;6676;45.192;5.722;2023-07-29T07:12:40;23.60;99.90
13223;DHT22;6676;45.192;5.722;2023-07-29T07:15:35;23.60;99.90
13223;DHT22;6676;45.192;5.722;2023-07-29T07:21:05;23.50;99.90
13223;DHT22;6676;45.192;5.722;2023-07-29T07:23:57;23.50;99.90
13223;DHT22;6676;45.192;5.722;2023-07-29T07:26:48;23.60;99.90
13223;DHT22;6676;45.192;5.722;2023-07-29T07:29:39;23.60;99.90
13223;DHT22;6676;45.192;5.722;2023-07-29T07:32:31;23.60;99.90
13223;DHT22;6676;45.192;5.722;2023-07-29T07:35:23;23.70;99.90
13223;DHT22;6676;45.192;5.722;2023-07-29T07:38:14;23.90;99.90
13223;DHT22;6676;45.192;5.722;2023-07-29T07:43:46;24.10;99.90
13223;DHT22;6676;45.192;5.722;2023-07-29T07:49:17;24.20;99.90
13223;DHT22;6676;45.192;5.722;2023-07-29T07:52:08;24.10;99.90
13223;DHT22;6676;45.192;5.722;2023-07-29T07:54:59;24.10;99.90
13223;DHT22;6676;45.192;5.722;2023-07-29T07:57:56;24.10;99.90
13223;DHT22;6676;45.192;5.722;2023-07-29T08:00:47;24.00;99.90
13223;DHT22;6676;45.192;5.722;2023-07-29T08:03:39;24.10;99.90
13223;DHT22;6676;45.192;5.722;2023-07-29T08:06:30;24.20;99.90
13223;DHT22;6676;45.192;5.722;2023-07-29T08:12:07;24.20;99.90
13223;DHT22;6676;45.192;5.722;2023-07-29T08:14:59;24.20;99.90
13223;DHT22;6676;45.192;5.722;2023-07-29T08:17:50;24.40;99.90
13223;DHT22;6676;45.192;5.722;2023-07-29T08:23:21;24.50;99.90
13223;DHT22;6676;45.192;5.722;2023-07-29T08:26:12;24.70;99.90
13223;DHT22;6676;45.192;5.722;2023-07-29T08:31:43;24.90;99.90
13223;DHT22;6676;45.192;5.722;2023-07-29T08:34:34;25.00;99.90
13223;DHT22;6676;45.192;5.722;2023-07-29T08:37:25;25.10;99.90
13223;DHT22;6676;45.192;5.722;2023-07-29T08:40:18;25.30;99.90
13223;DHT22;6676;45.192;5.722;2023-07-29T08:43:11;25.40;99.90
13223;DHT22;6676;45.192;5.722;2023-07-29T08:48:44;25.70;99.90
13223;DHT22;6676;45.192;5.722;2023-07-29T08:51:37;25.80;99.90
13223;DHT22;6676;45.192;5.722;2023-07-29T08:57:09;26.10;99.90
13223;DHT22;6676;45.192;5.722;2023-07-29T09:00:02;26.30;99.90
13223;DHT22;6676;45.192;5.722;2023-07-29T09:05:44;26.60;99.90
13223;DHT22;6676;45.192;5.722;2023-07-29T09:08:47;26.80;99.90
13223;DHT22;6676;45.192;5.722;2023-07-29T09:11:39;27.00;99.90
13223;DHT22;6676;45.192;5.722;2023-07-29T09:14:30;27.10;99.90
13223;DHT22;6676;45.192;5.722;2023-07-29T09:17:21;27.10;99.90
13223;DHT22;6676;45.192;5.722;2023-07-29T09:20:13;27.20;99.90
13223;DHT22;6676;45.192;5.722;2023-07-29T09:23:07;27.30;99.90
13223;DHT22;6676;45.192;5.722;2023-07-29T09:26:03;27.40;99.90
13223;DHT22;6676;45.192;5.722;2023-07-29T09:28:56;27.40;99.90
13223;DHT22;6676;45.192;5.722;2023-07-29T09:31:47;27.30;99.90
13223;DHT22;6676;45.192;5.722;2023-07-29T09:34:41;27.40;99.90
13223;DHT22;6676;45.192;5.722;2023-07-29T09:40:15;27.40;99.90
13223;DHT22;6676;45.192;5.722;2023-07-29T09:43:08;27.60;99.90
13223;DHT22;6676;45.192;5.722;2023-07-29T09:46:02;27.60;99.90
13223;DHT22;6676;45.192;5.722;2023-07-29T09:51:37;27.90;99.90
13223;DHT22;6676;45.192;5.722;2023-07-29T09:57:14;28.10;99.90
13223;DHT22;6676;45.192;5.722;2023-07-29T10:00:11;28.30;99.90
13223;DHT22;6676;45.192;5.722;2023-07-29T10:03:03;28.30;99.90
13223;DHT22;6676;45.192;5.722;2023-07-29T10:05:55;28.30;99.90
13223;DHT22;6676;45.192;5.722;2023-07-29T10:08:46;28.50;99.90
13223;DHT22;6676;45.192;5.722;2023-07-29T10:14:21;28.50;99.90
13223;DHT22;6676;45.192;5.722;2023-07-29T10:17:15;28.50;99.90
13223;DHT22;6676;45.192;5.722;2023-07-29T10:20:08;28.50;99.90
13223;DHT22;6676;45.192;5.722;2023-07-29T10:23:01;28.40;99.90
13223;DHT22;6676;45.192;5.722;2023-07-29T10:25:57;28.40;99.90
13223;DHT22;6676;45.192;5.722;2023-07-29T10:31:29;28.50;99.90
13223;DHT22;6676;45.192;5.722;2023-07-29T10:34:21;28.50;99.90
13223;DHT22;6676;45.192;5.722;2023-07-29T10:37:13;28.40;99.90
13223;DHT22;6676;45.192;5.722;2023-07-29T10:42:59;28.50;99.90
13223;DHT22;6676;45.192;5.722;2023-07-29T10:45:52;28.70;99.90
13223;DHT22;6676;45.192;5.722;2023-07-29T10:48:52;28.70;99.90
13223;DHT22;6676;45.192;5.722;2023-07-29T10:51:43;28.70;99.90
13223;DHT22;6676;45.192;5.722;2023-07-29T10:57:32;28.80;99.90
13223;DHT22;6676;45.192;5.722;2023-07-29T11:03:07;28.80;99.90
13223;DHT22;6676;45.192;5.722;2023-07-29T11:08:38;28.90;99.90
13223;DHT22;6676;45.192;5.722;2023-07-29T11:11:29;28.80;99.90
13223;DHT22;6676;45.192;5.722;2023-07-29T11:16:59;28.80;99.90
13223;DHT22;6676;45.192;5.722;2023-07-29T11:19:51;28.90;99.90
13223;DHT22;6676;45.192;5.722;2023-07-29T11:22:42;28.90;99.90
13223;DHT22;6676;45.192;5.722;2023-07-29T11:25:34;29.00;99.90
13223;DHT22;6676;45.192;5.722;2023-07-29T11:28:26;29.00;99.90
13223;DHT22;6676;45.192;5.722;2023-07-29T11:31:18;29.00;99.90
13223;DHT22;6676;45.192;5.722;2023-07-29T11:34:10;28.90;99.90
13223;DHT22;6676;45.192;5.722;2023-07-29T11:37:05;28.90;99.90
13223;DHT22;6676;45.192;5.722;2023-07-29T11:39:56;28.90;99.90
13223;DHT22;6676;45.192;5.722;2023-07-29T11:45:29;29.00;99.90
13223;DHT22;6676;45.192;5.722;2023-07-29T11:51:09;29.20;99.90
13223;DHT22;6676;45.192;5.722;2023-07-29T11:56:41;29.30;99.90
13223;DHT22;6676;45.192;5.722;2023-07-29T11:59:34;29.30;99.90
13223;DHT22;6676;45.192;5.722;2023-07-29T12:02:27;29.50;99.90
13223;DHT22;6676;45.192;5.722;2023-07-29T12:05:20;29.60;99.90
13223;DHT22;6676;45.192;5.722;2023-07-29T12:08:12;30.00;99.90
13223;DHT22;6676;45.192;5.722;2023-07-29T12:13:43;30.90;99.90
13223;DHT22;6676;45.192;5.722;2023-07-29T12:16:41;30.60;99.90
13223;DHT22;6676;45.192;5.722;2023-07-29T12:19:34;30.60;99.90
13223;DHT22;6676;45.192;5.722;2023-07-29T12:22:25;30.80;99.90
13223;DHT22;6676;45.192;5.722;2023-07-29T12:25:17;30.90;99.90
13223;DHT22;6676;45.192;5.722;2023-07-29T12:28:08;31.00;99.90
13223;DHT22;6676;45.192;5.722;2023-07-29T12:31:00;31.20;99.90
13223;DHT22;6676;45.192;5.722;2023-07-29T12:36:43;31.00;99.90
13223;DHT22;6676;45.192;5.722;2023-07-29T12:39:39;31.20;99.90
13223;DHT22;6676;45.192;5.722;2023-07-29T12:45:10;31.40;99.90
13223;DHT22;6676;45.192;5.722;2023-07-29T12:48:01;31.50;99.90
13223;DHT22;6676;45.192;5.722;2023-07-29T12:50:52;31.50;99.90
13223;DHT22;6676;45.192;5.722;2023-07-29T12:56:23;31.60;99.90
13223;DHT22;6676;45.192;5.722;2023-07-29T13:01:54;31.90;99.90
13223;DHT22;6676;45.192;5.722;2023-07-29T13:04:47;32.00;99.90
13223;DHT22;6676;45.192;5.722;2023-07-29T13:07:38;32.20;99.90
13223;DHT22;6676;45.192;5.722;2023-07-29T13:13:09;32.50;99.90
13223;DHT22;6676;45.192;5.722;2023-07-29T13:16:00;32.70;99.90
13223;DHT22;6676;45.192;5.722;2023-07-29T13:21:31;32.90;99.90
13223;DHT22;6676;45.192;5.722;2023-07-29T13:24:23;32.90;99.90
13223;DHT22;6676;45.192;5.722;2023-07-29T13:27:14;32.80;99.90
13223;DHT22;6676;45.192;5.722;2023-07-29T13:32:45;31.90;99.90
13223;DHT22;6676;45.192;5.722;2023-07-29T13:38:17;31.40;99.90
13223;DHT22;6676;45.192;5.722;2023-07-29T13:41:09;31.30;99.90
13223;DHT22;6676;45.192;5.722;2023-07-29T13:44:00;31.30;99.90
13223;DHT22;6676;45.192;5.722;2023-07-29T13:46:52;31.20;99.90
13223;DHT22;6676;45.192;5.722;2023-07-29T13:49:43;31.30;99.90
13223;DHT22;6676;45.192;5.722;2023-07-29T13:55:15;31.60;99.90
13223;DHT22;6676;45.192;5.722;2023-07-29T13:58:07;31.90;99.90
13223;DHT22;6676;45.192;5.722;2023-07-29T14:00:58;32.40;99.90
13223;DHT22;6676;45.192;5.722;2023-07-29T14:06:30;34.00;99.90
13223;DHT22;6676;45.192;5.722;2023-07-29T14:09:22;35.00;99.90
13223;DHT22;6676;45.192;5.722;2023-07-29T14:12:13;35.40;99.90
13223;DHT22;6676;45.192;5.722;2023-07-29T14:15:07;35.60;99.90
13223;DHT22;6676;45.192;5.722;2023-07-29T14:17:59;35.90;99.90
13223;DHT22;6676;45.192;5.722;2023-07-29T14:20:50;36.00;99.30
13223;DHT22;6676;45.192;5.722;2023-07-29T14:26:22;36.60;96.60
13223;DHT22;6676;45.192;5.722;2023-07-29T14:29:13;35.60;95.30
13223;DHT22;6676;45.192;5.722;2023-07-29T14:32:06;35.00;96.40
13223;DHT22;6676;45.192;5.722;2023-07-29T14:34:57;34.50;96.60
13223;DHT22;6676;45.192;5.722;2023-07-29T14:37:50;33.90;97.00
13223;DHT22;6676;45.192;5.722;2023-07-29T14:40:41;33.40;98.10
13223;DHT22;6676;45.192;5.722;2023-07-29T14:43:33;33.10;98.70
13223;DHT22;6676;45.192;5.722;2023-07-29T14:46:25;32.60;99.50
13223;DHT22;6676;45.192;5.722;2023-07-29T14:49:16;32.70;99.80
13223;DHT22;6676;45.192;5.722;2023-07-29T14:52:08;33.50;99.60
13223;DHT22;6676;45.192;5.722;2023-07-29T14:55:00;35.00;99.20
13223;DHT22;6676;45.192;5.722;2023-07-29T14:57:51;36.10;97.00
13223;DHT22;6676;45.192;5.722;2023-07-29T15:00:43;36.50;95.50
13223;DHT22;6676;45.192;5.722;2023-07-29T15:03:34;36.40;95.50
13223;DHT22;6676;45.192;5.722;2023-07-29T15:06:26;36.20;94.70
13223;DHT22;6676;45.192;5.722;2023-07-29T15:09:18;35.80;94.70
13223;DHT22;6676;45.192;5.722;2023-07-29T15:12:10;36.90;94.10
13223;DHT22;6676;45.192;5.722;2023-07-29T15:15:02;37.80;92.30
13223;DHT22;6676;45.192;5.722;2023-07-29T15:17:54;37.80;90.60
13223;DHT22;6676;45.192;5.722;2023-07-29T15:20:47;37.10;90.00
13223;DHT22;6676;45.192;5.722;2023-07-29T15:23:41;36.20;90.90
13223;DHT22;6676;45.192;5.722;2023-07-29T15:26:33;35.80;92.00
13223;DHT22;6676;45.192;5.722;2023-07-29T15:29:25;35.00;92.90
13223;DHT22;6676;45.192;5.722;2023-07-29T15:32:16;34.10;93.80
13223;DHT22;6676;45.192;5.722;2023-07-29T15:35:11;33.10;94.60
13223;DHT22;6676;45.192;5.722;2023-07-29T15:38:27;32.50;95.90
13223;DHT22;6676;45.192;5.722;2023-07-29T15:41:18;32.10;96.90
13223;DHT22;6676;45.192;5.722;2023-07-29T15:44:09;31.70;97.60
13223;DHT22;6676;45.192;5.722;2023-07-29T15:47:00;31.30;98.30
13223;DHT22;6676;45.192;5.722;2023-07-29T15:49:51;30.80;99.00
13223;DHT22;6676;45.192;5.722;2023-07-29T15:52:42;30.50;99.70
13223;DHT22;6676;45.192;5.722;2023-07-29T15:55:33;30.40;99.90
13223;DHT22;6676;45.192;5.722;2023-07-29T15:58:25;30.20;99.90
13223;DHT22;6676;45.192;5.722;2023-07-29T16:01:16;30.10;99.90
13223;DHT22;6676;45.192;5.722;2023-07-29T16:04:08;29.80;99.90
13223;DHT22;6676;45.192;5.722;2023-07-29T16:06:59;29.60;99.90
13223;DHT22;6676;45.192;5.722;2023-07-29T16:09:50;29.40;99.90
13223;DHT22;6676;45.192;5.722;2023-07-29T16:12:41;29.20;99.90
13223;DHT22;6676;45.192;5.722;2023-07-29T16:15:34;29.00;99.90
13223;DHT22;6676;45.192;5.722;2023-07-29T16:18:25;28.90;99.90
13223;DHT22;6676;45.192;5.722;2023-07-29T16:21:16;28.80;99.90
13223;DHT22;6676;45.192;5.722;2023-07-29T16:24:07;28.60;99.90
13223;DHT22;6676;45.192;5.722;2023-07-29T16:26:58;28.60;99.90
13223;DHT22;6676;45.192;5.722;2023-07-29T16:29:50;28.50;99.90
13223;DHT22;6676;45.192;5.722;2023-07-29T16:32:41;28.50;99.90
13223;DHT22;6676;45.192;5.722;2023-07-29T16:35:33;28.30;99.90
13223;DHT22;6676;45.192;5.722;2023-07-29T16:38:24;28.20;99.90
13223;DHT22;6676;45.192;5.722;2023-07-29T16:41:16;28.00;99.90
13223;DHT22;6676;45.192;5.722;2023-07-29T16:44:09;28.00;99.90
13223;DHT22;6676;45.192;5.722;2023-07-29T16:47:00;27.80;99.90
13223;DHT22;6676;45.192;5.722;2023-07-29T16:49:52;27.70;99.90
13223;DHT22;6676;45.192;5.722;2023-07-29T16:52:47;27.60;99.90
13223;DHT22;6676;45.192;5.722;2023-07-29T16:55:41;27.50;99.90
13223;DHT22;6676;45.192;5.722;2023-07-29T16:58:32;27.20;99.90
13223;DHT22;6676;45.192;5.722;2023-07-29T17:01:23;27.10;99.90
13223;DHT22;6676;45.192;5.722;2023-07-29T17:04:14;27.10;99.90
13223;DHT22;6676;45.192;5.722;2023-07-29T17:07:06;26.80;99.90
13223;DHT22;6676;45.192;5.722;2023-07-29T17:09:57;26.70;99.90
13223;DHT22;6676;45.192;5.722;2023-07-29T17:12:48;26.50;99.90
13223;DHT22;6676;45.192;5.722;2023-07-29T17:15:40;26.40;99.90
13223;DHT22;6676;45.192;5.722;2023-07-29T17:18:31;26.30;99.90
13223;DHT22;6676;45.192;5.722;2023-07-29T17:21:23;26.20;99.90
13223;DHT22;6676;45.192;5.722;2023-07-29T17:24:15;25.90;99.90
13223;DHT22;6676;45.192;5.722;2023-07-29T17:27:12;25.70;99.90
13223;DHT22;6676;45.192;5.722;2023-07-29T17:30:05;25.50;99.90
13223;DHT22;6676;45.192;5.722;2023-07-29T17:32:57;25.20;99.90
13223;DHT22;6676;45.192;5.722;2023-07-29T17:35:50;24.90;99.90
13223;DHT22;6676;45.192;5.722;2023-07-29T17:38:41;24.60;99.90
13223;DHT22;6676;45.192;5.722;2023-07-29T17:41:33;24.30;99.90
13223;DHT22;6676;45.192;5.722;2023-07-29T17:44:24;24.20;99.90
13223;DHT22;6676;45.192;5.722;2023-07-29T17:47:16;24.10;99.90
13223;DHT22;6676;45.192;5.722;2023-07-29T17:50:09;24.10;99.90
13223;DHT22;6676;45.192;5.722;2023-07-29T17:53:00;24.20;99.90
13223;DHT22;6676;45.192;5.722;2023-07-29T17:55:51;24.00;99.90
13223;DHT22;6676;45.192;5.722;2023-07-29T17:58:43;23.70;99.90
13223;DHT22;6676;45.192;5.722;2023-07-29T18:01:34;23.70;99.90
13223;DHT22;6676;45.192;5.722;2023-07-29T18:04:26;23.70;99.90
13223;DHT22;6676;45.192;5.722;2023-07-29T18:07:17;23.80;99.90
13223;DHT22;6676;45.192;5.722;2023-07-29T18:10:09;23.80;99.90
13223;DHT22;6676;45.192;5.722;2023-07-29T18:13:00;23.70;99.90
13223;DHT22;6676;45.192;5.722;2023-07-29T18:15:55;23.70;99.90
13223;DHT22;6676;45.192;5.722;2023-07-29T18:18:48;23.70;99.90
13223;DHT22;6676;45.192;5.722;2023-07-29T18:21:39;23.60;99.90
13223;DHT22;6676;45.192;5.722;2023-07-29T18:24:33;23.60;99.90
13223;DHT22;6676;45.192;5.722;2023-07-29T18:27:24;23.30;99.90
13223;DHT22;6676;45.192;5.722;2023-07-29T18:30:16;22.90;99.90
13223;DHT22;6676;45.192;5.722;2023-07-29T18:33:08;22.80;99.90
13223;DHT22;6676;45.192;5.722;2023-07-29T18:35:59;22.70;99.90
13223;DHT22;6676;45.192;5.722;2023-07-29T18:38:50;22.70;99.90
13223;DHT22;6676;45.192;5.722;2023-07-29T18:41:42;22.60;99.90
13223;DHT22;6676;45.192;5.722;2023-07-29T18:44:34;22.50;99.90
13223;DHT22;6676;45.192;5.722;2023-07-29T18:47:25;22.50;99.90
13223;DHT22;6676;45.192;5.722;2023-07-29T18:50:17;22.50;99.90
13223;DHT22;6676;45.192;5.722;2023-07-29T18:53:08;22.50;99.90
13223;DHT22;6676;45.192;5.722;2023-07-29T18:55:59;22.50;99.90
13223;DHT22;6676;45.192;5.722;2023-07-29T18:58:51;22.70;99.90
13223;DHT22;6676;45.192;5.722;2023-07-29T19:01:42;22.80;99.90
13223;DHT22;6676;45.192;5.722;2023-07-29T19:04:33;22.80;99.90
13223;DHT22;6676;45.192;5.722;2023-07-29T19:07:25;22.80;99.90
13223;DHT22;6676;45.192;5.722;2023-07-29T19:10:16;22.80;99.90
13223;DHT22;6676;45.192;5.722;2023-07-29T19:13:07;22.50;99.90
13223;DHT22;6676;45.192;5.722;2023-07-29T19:15:58;22.50;99.90
13223;DHT22;6676;45.192;5.722;2023-07-29T19:18:52;22.50;99.90
13223;DHT22;6676;45.192;5.722;2023-07-29T19:21:43;22.50;99.90
13223;DHT22;6676;45.192;5.722;2023-07-29T19:24:34;22.50;99.90
13223;DHT22;6676;45.192;5.722;2023-07-29T19:27:26;22.40;99.90
13223;DHT22;6676;45.192;5.722;2023-07-29T19:30:17;22.30;99.90
13223;DHT22;6676;45.192;5.722;2023-07-29T19:33:09;22.30;99.90
13223;DHT22;6676;45.192;5.722;2023-07-29T19:36:00;22.30;99.90
13223;DHT22;6676;45.192;5.722;2023-07-29T19:38:53;22.30;99.90
13223;DHT22;6676;45.192;5.722;2023-07-29T19:41:44;22.30;99.90
13223;DHT22;6676;45.192;5.722;2023-07-29T19:44:35;22.20;99.90
13223;DHT22;6676;45.192;5.722;2023-07-29T19:47:26;22.20;99.90
13223;DHT22;6676;45.192;5.722;2023-07-29T19:50:18;22.30;99.90
13223;DHT22;6676;45.192;5.722;2023-07-29T19:53:09;22.40;99.90
13223;DHT22;6676;45.192;5.722;2023-07-29T19:56:01;22.50;99.90
13223;DHT22;6676;45.192;5.722;2023-07-29T19:58:53;22.50;99.90
13223;DHT22;6676;45.192;5.722;2023-07-29T20:01:45;22.50;99.90
13223;DHT22;6676;45.192;5.722;2023-07-29T20:04:37;22.60;99.90
13223;DHT22;6676;45.192;5.722;2023-07-29T20:07:29;22.60;99.90
13223;DHT22;6676;45.192;5.722;2023-07-29T20:10:21;22.50;99.90
13223;DHT22;6676;45.192;5.722;2023-07-29T20:13:13;22.50;99.90
13223;DHT22;6676;45.192;5.722;2023-07-29T20:16:05;22.40;99.90
13223;DHT22;6676;45.192;5.722;2023-07-29T20:18:56;22.30;99.90
13223;DHT22;6676;45.192;5.722;2023-07-29T20:21:48;22.30;99.90
13223;DHT22;6676;45.192;5.722;2023-07-29T20:24:40;22.40;99.90
13223;DHT22;6676;45.192;5.722;2023-07-29T20:27:31;22.40;99.90
13223;DHT22;6676;45.192;5.722;2023-07-29T20:30:22;22.30;99.90
13223;DHT22;6676;45.192;5.722;2023-07-29T20:33:14;22.30;99.90
13223;DHT22;6676;45.192;5.722;2023-07-29T20:36:06;22.30;99.90
13223;DHT22;6676;45.192;5.722;2023-07-29T20:38:57;22.20;99.90
13223;DHT22;6676;45.192;5.722;2023-07-29T20:41:48;22.10;99.90
13223;DHT22;6676;45.192;5.722;2023-07-29T20:44:40;22.10;99.90
13223;DHT22;6676;45.192;5.722;2023-07-29T20:47:31;22.10;99.90
13223;DHT22;6676;45.192;5.722;2023-07-29T20:53:02;22.10;99.90
13223;DHT22;6676;45.192;5.722;2023-07-29T20:58:33;21.90;99.90
13223;DHT22;6676;45.192;5.722;2023-07-29T21:01:25;21.90;99.90
13223;DHT22;6676;45.192;5.722;2023-07-29T21:04:17;21.90;99.90
13223;DHT22;6676;45.192;5.722;2023-07-29T21:07:09;21.90;99.90
13223;DHT22;6676;45.192;5.722;2023-07-29T21:10:00;22.00;99.90
13223;DHT22;6676;45.192;5.722;2023-07-29T21:12:52;21.90;99.90
13223;DHT22;6676;45.192;5.722;2023-07-29T21:15:50;21.90;99.90